Tikaboo Peak, Nevada Weather observations

Data are for 10 minute period ending at time listed.
 Day   Time   Solar   Ave.   Ave.  Ave.  Vector  Max.   Baro.   Total    
  of    of     Rad.   Air    Rel.  Wind   Wind   Wind  Press.  Precip.   
Year   Day            Temp.  Hum.  Speed  Dir.   Gust                    
2018   (PST)  Kw/m2    F      %     mph   deg.    mph    mb.     in.     
-------------------------------------------------------------------------
 317    3:10   0.00   31.7    14   18.5   183    21.9   771.5    0.00 
 317    3:20   0.00   31.3    13   17.5   189    21.1   771.5    0.00 
 317    3:30   0.00   31.4    12   17.9   196    22.0   771.4    0.00 
 317    3:40   0.00   31.4    13   17.3   196    21.6   771.5    0.00 
 317    3:50   0.00   31.8    13   18.4   201    23.1   771.4    0.00 
 317    4:00   0.00   32.8    13   21.2   196    25.8   771.5    0.00 
 317    4:10   0.00   31.8    14   20.3   202    28.1   771.3    0.00 
 317    4:20   0.00   31.3    15   19.8   184    29.3   771.3    0.00 
 317    4:30   0.00   31.2    14   14.8   174    26.0   771.5    0.00 
 317    4:40   0.00   31.1    13   13.5   184    21.3   771.6    0.00 
 317    4:50   0.00   30.5    12   14.1   198    22.4   771.6    0.00 
 317    5:00   0.00   30.7    12   13.1   188    22.1   771.7    0.00 
 317    5:10   0.00   30.7    13   16.1   198    23.1   771.6    0.00 
 317    5:20   0.00   31.0    12   20.6   198    27.5   771.5    0.00 
 317    5:30   0.00   31.2    11   22.2   194    28.8   771.4    0.00 
 317    5:40   0.00   31.6    10   20.9   190    26.6   771.5    0.00 
 317    5:50   0.00   31.2    11   16.1   184    24.3   771.6    0.00 
 317    6:00   0.00   31.3    10   14.8   199    21.1   771.9    0.00 
 317    6:10   0.00   31.4    10    9.3   220    18.3   771.9    0.00 
 317    6:20   0.01   30.8    11    8.9   262    13.4   772.1    0.00 
 317    6:30   0.04   31.3    11    8.8   290    12.1   772.1    0.00 
 317    6:40   0.07   32.6    12    8.3   278    11.4   772.3    0.00 
 317    6:50   0.11   34.1    12   10.5   259    17.0   772.4    0.00 
 317    7:00   0.15   34.8    13   10.9   227    15.5   772.6    0.00 
 317    7:10   0.18   36.1    14   12.6   220    16.9   772.6    0.00 
 317    7:20   0.22   36.5    13    9.6   218    15.8   772.7    0.00 
 317    7:30   0.25   37.3    13    8.5   206    13.8   772.8    0.00 
 317    7:40   0.28   37.6    13    9.4   199    15.7   773.0    0.00 
 317    7:50   0.32   38.3    16   11.0   201    16.7   773.1    0.00 
 317    8:00   0.35   38.9    13    7.4   200    12.0   773.2    0.00 
 317    8:10   0.38   39.3    12    4.8   227     8.8   773.3    0.00 
 317    8:20   0.42   38.4    11    7.9   205    12.2   773.4    0.00 
 317    8:30   0.45   36.7    12    9.8   200    14.1   773.5    0.00 
 317    8:40   0.47   35.8    11   11.4   203    17.2   773.6    0.00 
 317    8:50   0.50   35.7    11   13.2   202    17.3   773.6    0.00 
 317    9:00   0.53   35.8    12   13.8   199    19.9   773.6    0.00 
 317    9:10   0.55   36.8    13   13.2   198    20.3   773.6    0.00 
 317    9:20   0.57   38.9    13   10.5   217    15.5   773.5    0.00 
 317    9:30   0.61   40.2    12   10.2   220    15.8   773.6    0.00 
 317    9:40   0.58   39.8    13   10.3   210    17.3   773.6    0.00 
 317    9:50   0.56   39.2    13   10.9   209    17.2   773.5    0.00 
 317   10:00   0.62   39.5    14   11.8   207    19.3   773.4    0.00 
 317   10:10   0.67   40.0    15   11.9   210    20.4   773.4    0.00 
 317   10:20   0.61   39.5    16   13.2   210    20.2   773.4    0.00 
 317   10:30   0.61   39.3    16   12.9   208    20.9   773.4    0.00 
 317   10:40   0.65   39.7    16   11.8   213    17.1   773.4    0.00 
 317   10:50   0.62   39.5    18   12.8   206    19.2   773.4    0.00 
 317   11:00   0.68   40.2    18   10.6   209    19.4   773.4    0.00 
 317   11:10   0.67   40.5    16   10.6   213    19.2   773.4    0.00 
 317   11:20   0.63   39.7    18   13.6   218    21.0   773.2    0.00 
 317   11:30   0.49   39.8    19   11.6   214    21.3   773.3    0.00 
 317   11:40   0.55   39.9    19   12.8   212    22.9   773.2    0.00 
 317   11:50   0.72   40.4    18   11.3   209    20.5   773.0    0.00 
 317   12:00   0.71   40.3    18   12.6   212    19.7   772.9    0.00 
 317   12:10   0.68   41.0    17    8.7   208    18.0   772.9    0.00 
 317   12:20   0.57   41.0    17    6.9   212    14.7   772.9    0.00 
 317   12:30   0.64   40.5    17    7.8   220    13.4   772.9    0.00 
 317   12:40   0.60   39.8    17    6.0   215    12.9   772.8    0.00 
 317   12:50   0.60   40.2    17    3.6   222     9.3   772.6    0.00 
 317   13:00   0.56   41.3    16    7.8   227    12.2   772.5    0.00 
 317   13:10   0.49   40.8    16    6.5   228    11.0   772.5    0.00 
 317   13:20   0.55   41.6    16    5.3   259    10.4   772.5    0.00 
 317   13:30   0.47   42.4    15    6.4   233    10.2   772.6    0.00 
 317   13:40   0.36   42.4    15    4.5   237     8.4   772.5    0.00 
 317   13:50   0.39   41.7    16    4.3   232     9.0   772.5    0.00 
 317   14:00   0.39   41.5    16    8.1   273    12.2   772.4    0.00 
 317   14:10   0.45   41.5    15    5.9   276    11.8   772.5    0.00 
 317   14:20   0.34   42.0    14    4.2   267     9.7   772.6    0.00 
 317   14:30   0.36   41.8    14    4.3   265     9.1   772.7    0.00 
 317   14:40   0.31   41.7    14    5.4   257    10.3   772.6    0.00 
 317   14:50   0.25   41.8    14    3.2   270     6.9   772.6    0.00 
 317   15:00   0.13   40.9    14    4.2   246     9.6   772.6    0.00 
 317   15:10   0.20   40.2    14    6.6   256    10.6   772.6    0.00 
 317   15:20   0.17   40.2    14    6.7   258    11.7   772.6    0.00 
 317   15:30   0.11   39.4    15    7.0   246    11.3   772.5    0.00 
 317   15:40   0.07   39.1    15    4.5   244    11.3   772.6    0.00 
 317   15:50   0.06   38.6    16    7.7   239    12.1   772.5    0.00 
 317   16:00   0.06   38.2    16    6.3   245    10.1   772.3    0.00 
 317   16:10   0.04   38.2    17    6.7   248     9.5   772.3    0.00 
 317   16:20   0.02   38.1    17    7.4   262    11.9   772.2    0.00 
 317   16:30   0.01   37.7    18    9.9   257    14.3   772.1    0.00 
 317   16:40   0.00   37.4    19   11.1   242    14.2   772.1    0.00 
 317   16:50   0.00   37.3    19   10.1   242    12.8   772.2    0.00 
 317   17:00   0.00   37.3    19   11.8   242    14.6   772.2    0.00 
 317   17:10   0.00   37.3    20   12.7   236    14.8   772.1    0.00 
 317   17:20   0.00   37.5    20   14.0   235    16.9   772.0    0.00 
 317   17:30   0.00   37.5    21   14.4   236    18.3   772.0    0.00 
 317   17:40   0.00   37.6    21   12.2   232    15.5   772.2    0.00 
 317   17:50   0.00   37.4    21   10.6   230    13.7   772.3    0.00 
 317   18:00   0.00   37.4    22   11.2   228    13.2   772.4    0.00 
 317   18:10   0.00   37.6    22   10.1   224    13.1   772.4    0.00 
 317   18:20   0.00   37.5    23    9.5   228    12.3   772.5    0.00 
 317   18:30   0.00   37.8    23   10.2   237    11.4   772.5    0.00 
 317   18:40   0.00   37.9    24    8.5   241    10.4   772.6    0.00 
 317   18:50   0.00   37.9    24    9.2   240    10.7   772.6    0.00 
 317   19:00   0.00   37.9    23   10.2   241    11.7   772.5    0.00 
 317   19:10   0.00   37.8    23    9.8   239    11.2   772.4    0.00 
 317   19:20   0.00   37.8    23    9.5   234    10.8   772.4    0.00 
 317   19:30   0.00   37.8    23    9.8   234    12.2   772.3    0.00 
 317   19:40   0.00   38.0    23   11.8   240    13.4   772.3    0.00 
 317   19:50   0.00   38.1    23   11.2   239    13.7   772.3    0.00 
 317   20:00   0.00   38.0    23   10.5   242    12.3   772.4    0.00 
 317   20:10   0.00   38.0    23   10.9   242    12.5   772.4    0.00 
 317   20:20   0.00   38.0    23   10.6   240    12.3   772.4    0.00 
 317   20:30   0.00   37.9    23    9.9   243    11.2   772.5    0.00 
 317   20:40   0.00   38.0    23   10.4   244    11.4   772.5    0.00 
 317   20:50   0.00   37.8    23    9.6   236    10.7   772.5    0.00 
 317   21:00   0.00   37.6    23    8.7   226     9.9   772.5    0.00 
 317   21:10   0.00   37.4    23    9.7   223    11.0   772.5    0.00 
 317   21:20   0.00   37.3    23    7.6   215    11.0   772.5    0.00 
 317   21:30   0.00   37.4    23    6.0   208     7.2   772.5    0.00 
 317   21:40   0.00   37.7    22    7.0   207     9.3   772.5    0.00 
 317   21:50   0.00   37.8    22    5.6   198     8.6   772.5    0.00 
 317   22:00   0.00   37.8    21    5.8   192     7.3   772.5    0.00 
 317   22:10   0.00   37.9    21    6.7   203     8.5   772.5    0.00 
 317   22:20   0.00   37.6    22    6.0   210     8.0   772.4    0.00 
 317   22:30   0.00   37.6    22    7.9   212    10.5   772.3    0.00 
 317   22:40   0.00   37.8    22    8.5   206    10.7   772.2    0.00 
 317   22:50   0.00   37.7    22    4.7   187     7.7   772.2    0.00 
 317   23:00   0.00   37.8    22    3.8   182     6.2   772.3    0.00 
 317   23:10   0.00   37.8    22    4.5   194     9.9   772.3    0.00 
 317   23:20   0.00   38.1    21    7.3   182    10.5   772.3    0.00 
 317   23:30   0.00   37.7    21    7.2   177     9.2   772.3    0.00 
 317   23:40   0.00   37.7    21    7.8   199    11.0   772.3    0.00 
 317   23:50   0.00   37.8    22    9.4   209    11.8   772.2    0.00 
 318    0:00   0.00   38.4    22    8.6   220    10.4   772.2    0.00 
 318    0:10   0.00   38.4    22    7.8   218    10.0   772.0    0.00 
 318    0:20   0.00   38.1    22    6.9   220     9.6   771.9    0.00 
 318    0:30   0.00   37.7    22    7.5   226     9.7   771.9    0.00 
 318    0:40   0.00   38.1    22    7.4   227     9.4   771.8    0.00 
 318    0:50   0.00   37.9    22    7.6   226     9.9   771.7    0.00 
 318    1:00   0.00   37.9    22    7.8   232    11.8   771.6    0.00 
 318    1:10   0.00   38.0    22    8.0   232    11.2   771.7    0.00 
 318    1:20   0.00   38.0    22    7.6   224    11.8   771.6    0.00 
 318    1:30   0.00   37.8    22    7.6   227    11.8   771.5    0.00 
 318    1:40   0.00   37.8    22    8.2   227    11.5   771.5    0.00 
 318    1:50   0.00   37.7    22    9.2   225    12.6   771.4    0.00 
 318    2:00   0.00   37.7    22    9.7   231    12.3   771.4    0.00 
 318    2:10   0.00   37.7    23   10.0   239    12.9   771.4    0.00 
 318    2:20   0.00   37.9    22    9.3   241    11.0   771.3    0.00 
 318    2:30   0.00   38.0    22   10.9   242    13.4   771.1    0.00 
 318    2:40   0.00   37.7    23    9.8   230    12.0   771.1    0.00 
 318    2:50   0.00   37.5    23    9.8   224    13.5   771.1    0.00 
 318    3:00   0.00   37.6    23   10.3   225    13.1   771.0    0.00 

Return to Tikaboo Peak graphs page.


Western Regional Climate Center,wrcc@dri.edu